Terminal Aerodrome Forecast
Issued by NWS

Home | Current Version | Previous Version | Text Only | Print | Product List | Glossary On
Versions: 1 2 3 4 5 6 7 8 9 10 11 12 13 14 15 16 17 18 19 20
000
FTUS41 KBTV 151130
TAFSLK
TAF
KSLK 151130Z 1512/1612 VRB05KT P6SM FEW100
     FM151500 21006KT P6SM BKN110
     FM160400 21005KT P6SM VCSH OVC040=

USA.gov is the U.S. government's official web portal to all federal, state and local government web resources and services.